sensor_id;sensor_type;location;lat;lon;timestamp;pressure;altitude;pressure_sealevel;temperature;humidity
71778;BME280;59609;52.430;4.668;2023-02-28T00:00:20;103270.25;;;4.43;100.00
71778;BME280;59609;52.430;4.668;2023-02-28T00:02:46;103277.06;;;4.53;100.00
71778;BME280;59609;52.430;4.668;2023-02-28T00:05:14;103277.88;;;4.55;100.00
71778;BME280;59609;52.430;4.668;2023-02-28T00:07:39;103261.50;;;4.55;100.00
71778;BME280;59609;52.430;4.668;2023-02-28T00:10:06;103277.69;;;4.60;100.00
71778;BME280;59609;52.430;4.668;2023-02-28T00:12:33;103277.06;;;4.53;100.00
71778;BME280;59609;52.430;4.668;2023-02-28T00:14:58;103283.19;;;4.58;100.00
71778;BME280;59609;52.430;4.668;2023-02-28T00:17:24;103285.63;;;4.64;100.00
71778;BME280;59609;52.430;4.668;2023-02-28T00:19:50;103273.91;;;4.62;100.00
71778;BME280;59609;52.430;4.668;2023-02-28T00:22:18;103272.69;;;4.70;100.00
71778;BME280;59609;52.430;4.668;2023-02-28T00:24:44;103277.72;;;4.58;100.00
71778;BME280;59609;52.430;4.668;2023-02-28T00:27:10;103269.06;;;4.69;100.00
71778;BME280;59609;52.430;4.668;2023-02-28T00:29:35;103274.56;;;4.67;100.00
71778;BME280;59609;52.430;4.668;2023-02-28T00:32:00;103278.47;;;4.82;100.00
71778;BME280;59609;52.430;4.668;2023-02-28T00:34:26;103265.25;;;4.73;100.00
71778;BME280;59609;52.430;4.668;2023-02-28T00:36:51;103275.78;;;4.81;100.00
71778;BME280;59609;52.430;4.668;2023-02-28T00:39:17;103267.41;;;4.85;99.91
71778;BME280;59609;52.430;4.668;2023-02-28T00:41:42;103261.88;;;4.87;99.79
71778;BME280;59609;52.430;4.668;2023-02-28T00:44:07;103253.81;;;4.84;100.00
71778;BME280;59609;52.430;4.668;2023-02-28T00:46:33;103255.28;;;4.91;100.00
71778;BME280;59609;52.430;4.668;2023-02-28T00:49:01;103259.59;;;4.96;99.95
71778;BME280;59609;52.430;4.668;2023-02-28T00:51:26;103257.06;;;4.92;100.00
71778;BME280;59609;52.430;4.668;2023-02-28T00:53:51;103258.91;;;4.91;100.00
71778;BME280;59609;52.430;4.668;2023-02-28T00:56:17;103263.56;;;4.89;100.00
71778;BME280;59609;52.430;4.668;2023-02-28T00:58:42;103267.19;;;4.90;100.00
71778;BME280;59609;52.430;4.668;2023-02-28T01:01:07;103267.34;;;4.87;100.00
71778;BME280;59609;52.430;4.668;2023-02-28T01:03:33;103268.75;;;4.95;100.00
71778;BME280;59609;52.430;4.668;2023-02-28T01:05:58;103273.31;;;4.95;99.78
71778;BME280;59609;52.430;4.668;2023-02-28T01:08:24;103267.94;;;4.93;100.00
71778;BME280;59609;52.430;4.668;2023-02-28T01:10:49;103271.47;;;4.95;100.00
71778;BME280;59609;52.430;4.668;2023-02-28T01:13:14;103266.91;;;4.96;100.00
71778;BME280;59609;52.430;4.668;2023-02-28T01:15:44;103273.03;;;5.01;100.00
71778;BME280;59609;52.430;4.668;2023-02-28T01:18:11;103257.38;;;5.04;100.00
71778;BME280;59609;52.430;4.668;2023-02-28T01:20:37;103256.38;;;5.07;99.88
71778;BME280;59609;52.430;4.668;2023-02-28T01:23:02;103246.41;;;5.06;100.00
71778;BME280;59609;52.430;4.668;2023-02-28T01:25:28;103243.72;;;5.04;99.82
71778;BME280;59609;52.430;4.668;2023-02-28T01:27:53;103245.25;;;4.91;100.00
71778;BME280;59609;52.430;4.668;2023-02-28T01:30:19;103241.44;;;4.95;100.00
71778;BME280;59609;52.430;4.668;2023-02-28T01:32:44;103246.00;;;4.95;100.00
71778;BME280;59609;52.430;4.668;2023-02-28T01:35:10;103248.75;;;4.95;99.89
71778;BME280;59609;52.430;4.668;2023-02-28T01:37:35;103243.41;;;4.92;100.00
71778;BME280;59609;52.430;4.668;2023-02-28T01:40:01;103241.50;;;4.94;100.00
71778;BME280;59609;52.430;4.668;2023-02-28T01:42:26;103242.47;;;4.93;99.72
71778;BME280;59609;52.430;4.668;2023-02-28T01:45:18;103240.53;;;4.95;100.00
71778;BME280;59609;52.430;4.668;2023-02-28T01:47:44;103236.91;;;4.94;100.00
71778;BME280;59609;52.430;4.668;2023-02-28T01:50:21;103241.59;;;4.92;100.00
71778;BME280;59609;52.430;4.668;2023-02-28T01:52:48;103234.13;;;4.96;100.00
71778;BME280;59609;52.430;4.668;2023-02-28T01:55:16;103232.06;;;5.01;100.00
71778;BME280;59609;52.430;4.668;2023-02-28T01:57:48;103237.31;;;5.05;100.00
71778;BME280;59609;52.430;4.668;2023-02-28T02:00:18;103237.16;;;5.08;99.62
71778;BME280;59609;52.430;4.668;2023-02-28T02:02:49;103221.66;;;5.09;99.36
71778;BME280;59609;52.430;4.668;2023-02-28T02:05:23;103230.66;;;5.11;99.51
71778;BME280;59609;52.430;4.668;2023-02-28T02:07:52;103235.16;;;5.12;100.00
71778;BME280;59609;52.430;4.668;2023-02-28T02:10:42;103234.22;;;5.13;99.72
71778;BME280;59609;52.430;4.668;2023-02-28T02:32:54;103200.63;;;5.30;99.61
71778;BME280;59609;52.430;4.668;2023-02-28T02:35:32;103204.16;;;5.32;98.72
71778;BME280;59609;52.430;4.668;2023-02-28T02:38:10;103198.78;;;5.30;99.67
71778;BME280;59609;52.430;4.668;2023-02-28T02:40:43;103205.84;;;5.34;98.81
71778;BME280;59609;52.430;4.668;2023-02-28T02:43:17;103203.19;;;5.33;98.24
71778;BME280;59609;52.430;4.668;2023-02-28T02:45:51;103209.56;;;5.33;98.71
71778;BME280;59609;52.430;4.668;2023-02-28T02:48:19;103209.47;;;5.35;99.40
71778;BME280;59609;52.430;4.668;2023-02-28T02:50:50;103210.34;;;5.35;98.64
71778;BME280;59609;52.430;4.668;2023-02-28T02:53:18;103200.47;;;5.33;98.97
71778;BME280;59609;52.430;4.668;2023-02-28T02:55:47;103195.78;;;5.35;98.74
71778;BME280;59609;52.430;4.668;2023-02-28T02:58:21;103203.94;;;5.36;98.91
71778;BME280;59609;52.430;4.668;2023-02-28T03:00:53;103201.09;;;5.38;99.34
71778;BME280;59609;52.430;4.668;2023-02-28T03:03:19;103215.66;;;5.38;99.11
71778;BME280;59609;52.430;4.668;2023-02-28T03:05:55;103207.72;;;5.34;99.99
71778;BME280;59609;52.430;4.668;2023-02-28T03:08:22;103202.94;;;5.37;99.88
71778;BME280;59609;52.430;4.668;2023-02-28T03:10:52;103218.41;;;5.38;100.00
71778;BME280;59609;52.430;4.668;2023-02-28T03:13:39;103214.56;;;5.42;99.50
71778;BME280;59609;52.430;4.668;2023-02-28T03:18:49;103214.56;;;5.42;99.93
71778;BME280;59609;52.430;4.668;2023-02-28T03:24:27;103209.88;;;5.44;100.00
71778;BME280;59609;52.430;4.668;2023-02-28T03:27:09;103197.09;;;5.45;100.00
71778;BME280;59609;52.430;4.668;2023-02-28T03:29:40;103205.25;;;5.46;100.00
71778;BME280;59609;52.430;4.668;2023-02-28T03:32:16;103209.72;;;5.47;100.00
71778;BME280;59609;52.430;4.668;2023-02-28T03:34:54;103208.78;;;5.48;100.00
71778;BME280;59609;52.430;4.668;2023-02-28T03:37:23;103207.00;;;5.47;100.00
71778;BME280;59609;52.430;4.668;2023-02-28T03:40:01;103204.03;;;5.52;100.00
71778;BME280;59609;52.430;4.668;2023-02-28T03:42:34;103205.97;;;5.50;100.00
71778;BME280;59609;52.430;4.668;2023-02-28T03:45:04;103209.66;;;5.49;100.00
71778;BME280;59609;52.430;4.668;2023-02-28T03:47:41;103208.63;;;5.51;100.00
71778;BME280;59609;52.430;4.668;2023-02-28T03:50:18;103213.19;;;5.51;100.00
71778;BME280;59609;52.430;4.668;2023-02-28T03:52:55;103206.94;;;5.49;100.00
71778;BME280;59609;52.430;4.668;2023-02-28T03:55:28;103212.19;;;5.53;100.00
71778;BME280;59609;52.430;4.668;2023-02-28T03:58:05;103208.72;;;5.50;100.00
71778;BME280;59609;52.430;4.668;2023-02-28T04:00:45;103207.97;;;5.46;100.00
71778;BME280;59609;52.430;4.668;2023-02-28T04:03:12;103203.16;;;5.51;100.00
71778;BME280;59609;52.430;4.668;2023-02-28T04:06:04;103207.66;;;5.52;100.00
71778;BME280;59609;52.430;4.668;2023-02-28T04:08:30;103208.63;;;5.51;100.00
71778;BME280;59609;52.430;4.668;2023-02-28T04:11:04;103192.31;;;5.50;100.00
71778;BME280;59609;52.430;4.668;2023-02-28T04:13:31;103198.56;;;5.52;100.00
71778;BME280;59609;52.430;4.668;2023-02-28T04:15:56;103200.72;;;5.45;100.00
71778;BME280;59609;52.430;4.668;2023-02-28T04:18:21;103194.31;;;5.46;100.00
71778;BME280;59609;52.430;4.668;2023-02-28T04:20:47;103192.38;;;5.48;100.00
71778;BME280;59609;52.430;4.668;2023-02-28T04:23:12;103192.38;;;5.48;100.00
71778;BME280;59609;52.430;4.668;2023-02-28T04:25:37;103187.66;;;5.52;100.00
71778;BME280;59609;52.430;4.668;2023-02-28T04:28:05;103197.63;;;5.53;100.00
71778;BME280;59609;52.430;4.668;2023-02-28T04:30:31;103195.94;;;5.50;100.00
71778;BME280;59609;52.430;4.668;2023-02-28T04:32:58;103192.22;;;5.51;100.00
71778;BME280;59609;52.430;4.668;2023-02-28T04:35:23;103194.16;;;5.49;100.00
71778;BME280;59609;52.430;4.668;2023-02-28T04:37:48;103191.31;;;5.51;100.00
71778;BME280;59609;52.430;4.668;2023-02-28T04:40:14;103203.09;;;5.53;100.00
71778;BME280;59609;52.430;4.668;2023-02-28T04:42:39;103180.38;;;5.51;100.00
71778;BME280;59609;52.430;4.668;2023-02-28T04:45:05;103185.00;;;5.50;100.00
71778;BME280;59609;52.430;4.668;2023-02-28T04:47:30;103195.78;;;5.53;100.00
71778;BME280;59609;52.430;4.668;2023-02-28T04:49:56;103194.88;;;5.53;100.00
71778;BME280;59609;52.430;4.668;2023-02-28T04:52:21;103199.53;;;5.51;100.00
71778;BME280;59609;52.430;4.668;2023-02-28T04:54:47;103185.63;;;5.55;100.00
71778;BME280;59609;52.430;4.668;2023-02-28T04:57:12;103181.13;;;5.54;100.00
71778;BME280;59609;52.430;4.668;2023-02-28T04:59:38;103188.16;;;5.60;100.00
71778;BME280;59609;52.430;4.668;2023-02-28T05:02:03;103193.84;;;5.55;100.00
71778;BME280;59609;52.430;4.668;2023-02-28T05:04:33;103185.56;;;5.57;100.00
71778;BME280;59609;52.430;4.668;2023-02-28T05:07:00;103189.00;;;5.60;100.00
71778;BME280;59609;52.430;4.668;2023-02-28T05:09:25;103188.06;;;5.61;100.00
71778;BME280;59609;52.430;4.668;2023-02-28T05:11:51;103193.38;;;5.64;100.00
71778;BME280;59609;52.430;4.668;2023-02-28T05:14:16;103195.63;;;5.56;100.00
71778;BME280;59609;52.430;4.668;2023-02-28T05:16:42;103199.72;;;5.65;100.00
71778;BME280;59609;52.430;4.668;2023-02-28T05:19:07;103196.09;;;5.64;100.00
71778;BME280;59609;52.430;4.668;2023-02-28T05:21:40;103189.84;;;5.62;100.00
71778;BME280;59609;52.430;4.668;2023-02-28T05:24:09;103195.16;;;5.65;100.00
71778;BME280;59609;52.430;4.668;2023-02-28T05:26:37;103190.63;;;5.64;100.00
71778;BME280;59609;52.430;4.668;2023-02-28T05:29:03;103187.00;;;5.64;100.00
71778;BME280;59609;52.430;4.668;2023-02-28T05:31:28;103176.66;;;5.70;100.00
71778;BME280;59609;52.430;4.668;2023-02-28T05:33:54;103182.78;;;5.76;100.00
71778;BME280;59609;52.430;4.668;2023-02-28T05:36:20;103191.72;;;5.79;100.00
71778;BME280;59609;52.430;4.668;2023-02-28T05:38:47;103190.66;;;5.82;100.00
71778;BME280;59609;52.430;4.668;2023-02-28T05:41:13;103192.59;;;5.80;100.00
71778;BME280;59609;52.430;4.668;2023-02-28T05:43:39;103189.03;;;5.78;100.00
71778;BME280;59609;52.430;4.668;2023-02-28T05:46:05;103190.88;;;5.77;100.00
71778;BME280;59609;52.430;4.668;2023-02-28T05:48:32;103193.38;;;5.64;100.00
71778;BME280;59609;52.430;4.668;2023-02-28T05:50:58;103210.03;;;5.60;100.00
71778;BME280;59609;52.430;4.668;2023-02-28T05:53:23;103203.13;;;5.70;100.00
71778;BME280;59609;52.430;4.668;2023-02-28T05:55:48;103202.25;;;5.51;100.00
71778;BME280;59609;52.430;4.668;2023-02-28T05:58:14;103190.88;;;5.60;100.00
71778;BME280;59609;52.430;4.668;2023-02-28T06:00:39;103192.34;;;5.67;100.00
71778;BME280;59609;52.430;4.668;2023-02-28T06:03:04;103203.72;;;5.58;100.00
71778;BME280;59609;52.430;4.668;2023-02-28T06:05:30;103186.78;;;5.68;100.00
71778;BME280;59609;52.430;4.668;2023-02-28T06:07:55;103196.03;;;5.66;100.00
71778;BME280;59609;52.430;4.668;2023-02-28T06:10:20;103195.31;;;5.62;100.00
71778;BME280;59609;52.430;4.668;2023-02-28T06:12:46;103194.19;;;5.66;100.00
71778;BME280;59609;52.430;4.668;2023-02-28T06:15:13;103200.31;;;5.71;100.00
71778;BME280;59609;52.430;4.668;2023-02-28T06:17:40;103198.53;;;5.70;100.00
71778;BME280;59609;52.430;4.668;2023-02-28T06:20:07;103195.63;;;5.56;100.00
71778;BME280;59609;52.430;4.668;2023-02-28T06:22:32;103196.31;;;5.43;100.00
71778;BME280;59609;52.430;4.668;2023-02-28T06:24:58;103195.78;;;5.53;100.00
71778;BME280;59609;52.430;4.668;2023-02-28T06:27:23;103195.09;;;5.48;100.00
71778;BME280;59609;52.430;4.668;2023-02-28T06:29:48;103196.31;;;5.43;100.00
71778;BME280;59609;52.430;4.668;2023-02-28T06:32:14;103198.00;;;5.45;100.00
71778;BME280;59609;52.430;4.668;2023-02-28T06:34:39;103198.00;;;5.45;100.00
71778;BME280;59609;52.430;4.668;2023-02-28T06:37:07;103196.78;;;5.51;100.00
71778;BME280;59609;52.430;4.668;2023-02-28T06:39:33;103201.25;;;5.35;100.00
71778;BME280;59609;52.430;4.668;2023-02-28T06:42:00;103209.94;;;5.07;100.00
71778;BME280;59609;52.430;4.668;2023-02-28T06:44:26;103210.88;;;5.06;100.00
71778;BME280;59609;52.430;4.668;2023-02-28T06:46:51;103219.13;;;4.86;100.00
71778;BME280;59609;52.430;4.668;2023-02-28T06:49:17;103219.44;;;4.80;100.00
71778;BME280;59609;52.430;4.668;2023-02-28T06:51:44;103217.03;;;4.72;100.00
71778;BME280;59609;52.430;4.668;2023-02-28T06:54:12;103214.66;;;4.64;100.00
71778;BME280;59609;52.430;4.668;2023-02-28T06:56:38;103232.34;;;4.76;100.00
71778;BME280;59609;52.430;4.668;2023-02-28T06:59:03;103237.06;;;4.52;100.00
71778;BME280;59609;52.430;4.668;2023-02-28T07:01:29;103229.28;;;4.63;100.00
71778;BME280;59609;52.430;4.668;2023-02-28T07:03:57;103227.94;;;4.53;100.00
71778;BME280;59609;52.430;4.668;2023-02-28T07:06:22;103216.28;;;4.50;100.00
71778;BME280;59609;52.430;4.668;2023-02-28T07:08:49;103225.41;;;4.49;100.00
71778;BME280;59609;52.430;4.668;2023-02-28T07:11:14;103239.00;;;4.30;100.00
71778;BME280;59609;52.430;4.668;2023-02-28T07:13:40;103240.97;;;4.27;100.00
71778;BME280;59609;52.430;4.668;2023-02-28T07:16:07;103224.31;;;4.12;100.00
71778;BME280;59609;52.430;4.668;2023-02-28T07:18:35;103232.47;;;3.92;100.00
71778;BME280;59609;52.430;4.668;2023-02-28T07:21:08;103246.41;;;3.85;100.00
71778;BME280;59609;52.430;4.668;2023-02-28T07:23:35;103230.50;;;3.96;100.00
71778;BME280;59609;52.430;4.668;2023-02-28T07:26:01;103243.69;;;3.85;100.00
71778;BME280;59609;52.430;4.668;2023-02-28T07:28:26;103242.88;;;3.83;100.00
71778;BME280;59609;52.430;4.668;2023-02-28T07:30:52;103247.50;;;3.81;100.00
71778;BME280;59609;52.430;4.668;2023-02-28T07:33:17;103247.00;;;3.93;100.00
71778;BME280;59609;52.430;4.668;2023-02-28T07:35:43;103248.66;;;3.97;100.00
71778;BME280;59609;52.430;4.668;2023-02-28T07:38:08;103241.19;;;3.80;100.00
71778;BME280;59609;52.430;4.668;2023-02-28T07:40:35;103249.81;;;3.70;100.00
71778;BME280;59609;52.430;4.668;2023-02-28T07:43:01;103255.00;;;3.76;100.00
71778;BME280;59609;52.430;4.668;2023-02-28T07:45:27;103250.78;;;3.67;100.00
71778;BME280;59609;52.430;4.668;2023-02-28T07:47:54;103250.69;;;3.70;100.00
71778;BME280;59609;52.430;4.668;2023-02-28T07:50:20;103267.78;;;3.30;100.00
71778;BME280;59609;52.430;4.668;2023-02-28T07:52:46;103263.16;;;3.09;100.00
71778;BME280;59609;52.430;4.668;2023-02-28T07:55:11;103258.91;;;3.02;100.00
71778;BME280;59609;52.430;4.668;2023-02-28T07:57:37;103259.38;;;2.90;100.00
71778;BME280;59609;52.430;4.668;2023-02-28T08:00:08;103268.84;;;2.80;100.00
71778;BME280;59609;52.430;4.668;2023-02-28T08:02:38;103262.91;;;2.69;100.00
71778;BME280;59609;52.430;4.668;2023-02-28T08:05:05;103261.47;;;2.58;100.00
71778;BME280;59609;52.430;4.668;2023-02-28T08:07:30;103261.34;;;2.62;100.00
71778;BME280;59609;52.430;4.668;2023-02-28T08:09:56;103276.34;;;2.48;100.00
71778;BME280;59609;52.430;4.668;2023-02-28T08:12:21;103279.69;;;2.56;100.00
71778;BME280;59609;52.430;4.668;2023-02-28T08:14:47;103278.06;;;2.26;100.00
71778;BME280;59609;52.430;4.668;2023-02-28T08:17:12;103283.63;;;2.23;100.00
71778;BME280;59609;52.430;4.668;2023-02-28T08:19:37;103281.75;;;2.24;100.00
71778;BME280;59609;52.430;4.668;2023-02-28T08:22:03;103290.13;;;2.18;100.00
71778;BME280;59609;52.430;4.668;2023-02-28T08:24:28;103281.69;;;2.27;100.00
71778;BME280;59609;52.430;4.668;2023-02-28T08:26:54;103286.13;;;2.29;100.00
71778;BME280;59609;52.430;4.668;2023-02-28T08:29:20;103273.44;;;2.28;100.00
71778;BME280;59609;52.430;4.668;2023-02-28T08:31:45;103268.25;;;2.22;100.00
71778;BME280;59609;52.430;4.668;2023-02-28T08:34:15;103269.94;;;2.25;100.00
71778;BME280;59609;52.430;4.668;2023-02-28T08:36:41;103268.94;;;2.27;100.00
71778;BME280;59609;52.430;4.668;2023-02-28T08:39:08;103275.34;;;2.51;100.00
71778;BME280;59609;52.430;4.668;2023-02-28T08:41:34;103271.91;;;2.46;100.00
71778;BME280;59609;52.430;4.668;2023-02-28T08:43:59;103269.50;;;2.62;100.00
71778;BME280;59609;52.430;4.668;2023-02-28T08:46:25;103267.38;;;2.46;100.00
71778;BME280;59609;52.430;4.668;2023-02-28T08:48:55;103272.16;;;2.40;100.00
71778;BME280;59609;52.430;4.668;2023-02-28T08:51:21;103285.94;;;2.34;100.00
71778;BME280;59609;52.430;4.668;2023-02-28T08:53:54;103286.44;;;2.45;100.00
71778;BME280;59609;52.430;4.668;2023-02-28T08:56:20;103286.31;;;2.49;100.00
71778;BME280;59609;52.430;4.668;2023-02-28T08:58:47;103281.13;;;2.67;100.00
71778;BME280;59609;52.430;4.668;2023-02-28T09:01:16;103282.56;;;2.52;100.00
71778;BME280;59609;52.430;4.668;2023-02-28T09:03:41;103281.84;;;2.72;100.00
71778;BME280;59609;52.430;4.668;2023-02-28T09:06:08;103283.63;;;2.73;100.00
71778;BME280;59609;52.430;4.668;2023-02-28T09:08:37;103297.72;;;2.59;100.00
71778;BME280;59609;52.430;4.668;2023-02-28T09:11:03;103294.19;;;2.80;100.00
71778;BME280;59609;52.430;4.668;2023-02-28T09:13:29;103298.13;;;2.73;100.00
71778;BME280;59609;52.430;4.668;2023-02-28T09:15:57;103301.13;;;2.66;100.00
71778;BME280;59609;52.430;4.668;2023-02-28T09:18:22;103297.91;;;2.79;100.00
71778;BME280;59609;52.430;4.668;2023-02-28T09:20:48;103293.75;;;2.92;100.00
71778;BME280;59609;52.430;4.668;2023-02-28T09:23:13;103294.13;;;3.06;100.00
71778;BME280;59609;52.430;4.668;2023-02-28T09:25:49;103284.88;;;3.10;100.00
71778;BME280;59609;52.430;4.668;2023-02-28T09:28:17;103286.94;;;3.04;100.00
71778;BME280;59609;52.430;4.668;2023-02-28T09:30:45;103286.66;;;3.35;100.00
71778;BME280;59609;52.430;4.668;2023-02-28T09:33:11;103287.88;;;3.49;100.00
71778;BME280;59609;52.430;4.668;2023-02-28T09:35:36;103289.63;;;3.29;100.00
71778;BME280;59609;52.430;4.668;2023-02-28T09:38:02;103284.56;;;3.41;100.00
71778;BME280;59609;52.430;4.668;2023-02-28T09:40:28;103281.94;;;3.61;100.00
71778;BME280;59609;52.430;4.668;2023-02-28T09:42:55;103292.47;;;3.92;100.00
71778;BME280;59609;52.430;4.668;2023-02-28T09:45:32;103290.47;;;4.18;100.00
71778;BME280;59609;52.430;4.668;2023-02-28T09:48:04;103286.25;;;3.89;100.00
71778;BME280;59609;52.430;4.668;2023-02-28T09:53:14;103296.44;;;4.05;100.00
71778;BME280;59609;52.430;4.668;2023-02-28T09:55:50;103294.66;;;4.26;100.00
71778;BME280;59609;52.430;4.668;2023-02-28T10:00:56;103294.78;;;4.23;100.00
71778;BME280;59609;52.430;4.668;2023-02-28T10:03:40;103301.19;;;4.22;100.00
71778;BME280;59609;52.430;4.668;2023-02-28T10:06:17;103298.78;;;4.14;100.00
71778;BME280;59609;52.430;4.668;2023-02-28T10:08:55;103292.38;;;4.15;100.00
71778;BME280;59609;52.430;4.668;2023-02-28T10:11:23;103286.63;;;4.43;100.00
71778;BME280;59609;52.430;4.668;2023-02-28T10:16:46;103288.09;;;4.71;100.00
71778;BME280;59609;52.430;4.668;2023-02-28T10:19:32;103287.22;;;4.50;100.00
71778;BME280;59609;52.430;4.668;2023-02-28T10:22:04;103295.34;;;4.51;100.00
71778;BME280;59609;52.430;4.668;2023-02-28T10:24:41;103295.00;;;4.39;100.00
71778;BME280;59609;52.430;4.668;2023-02-28T10:27:21;103292.41;;;4.56;100.00
71778;BME280;59609;52.430;4.668;2023-02-28T10:29:49;103292.59;;;4.72;100.00
71778;BME280;59609;52.430;4.668;2023-02-28T10:32:19;103276.06;;;4.75;99.25
71778;BME280;59609;52.430;4.668;2023-02-28T10:34:45;103285.97;;;4.77;97.60
71778;BME280;59609;52.430;4.668;2023-02-28T10:37:15;103284.13;;;4.78;97.34
71778;BME280;59609;52.430;4.668;2023-02-28T10:39:44;103297.72;;;4.79;96.63
71778;BME280;59609;52.430;4.668;2023-02-28T10:42:23;103294.38;;;5.11;96.97
71778;BME280;59609;52.430;4.668;2023-02-28T10:45:15;103287.97;;;5.12;96.70
71778;BME280;59609;52.430;4.668;2023-02-28T10:50:27;103289.75;;;5.32;95.52
71778;BME280;59609;52.430;4.668;2023-02-28T10:52:53;103288.56;;;5.19;93.65
71778;BME280;59609;52.430;4.668;2023-02-28T10:55:25;103292.69;;;5.09;93.43
71778;BME280;59609;52.430;4.668;2023-02-28T10:57:51;103298.84;;;4.94;92.85
71778;BME280;59609;52.430;4.668;2023-02-28T11:00:22;103285.09;;;4.77;89.71
71778;BME280;59609;52.430;4.668;2023-02-28T11:02:48;103289.59;;;5.16;92.22
71778;BME280;59609;52.430;4.668;2023-02-28T11:08:06;103281.47;;;5.15;85.92
71778;BME280;59609;52.430;4.668;2023-02-28T11:10:36;103276.31;;;5.28;85.36
71778;BME280;59609;52.430;4.668;2023-02-28T11:13:02;103276.91;;;5.34;84.45
71778;BME280;59609;52.430;4.668;2023-02-28T11:15:33;103288.22;;;5.27;80.86
71778;BME280;59609;52.430;4.668;2023-02-28T11:18:29;103287.88;;;5.14;80.69
71778;BME280;59609;52.430;4.668;2023-02-28T11:20:56;103292.72;;;5.46;82.34
71778;BME280;59609;52.430;4.668;2023-02-28T11:23:25;103280.16;;;5.42;79.24
71778;BME280;59609;52.430;4.668;2023-02-28T11:25:55;103277.41;;;5.61;78.59
71778;BME280;59609;52.430;4.668;2023-02-28T11:28:31;103278.09;;;5.66;75.86
71778;BME280;59609;52.430;4.668;2023-02-28T11:36:22;103265.75;;;6.29;70.12
71778;BME280;59609;52.430;4.668;2023-02-28T11:38:53;103281.03;;;6.67;75.06
71778;BME280;59609;52.430;4.668;2023-02-28T11:49:50;103268.06;;;6.54;69.38
71778;BME280;59609;52.430;4.668;2023-02-28T11:52:37;103275.09;;;6.25;66.41
71778;BME280;59609;52.430;4.668;2023-02-28T11:55:27;103270.72;;;6.55;70.23
71778;BME280;59609;52.430;4.668;2023-02-28T12:00:47;103266.53;;;6.83;70.75
71778;BME280;59609;52.430;4.668;2023-02-28T12:06:13;103260.22;;;6.81;66.89
71778;BME280;59609;52.430;4.668;2023-02-28T12:08:56;103257.31;;;7.16;64.22
71778;BME280;59609;52.430;4.668;2023-02-28T12:11:36;103247.19;;;7.50;66.08
71778;BME280;59609;52.430;4.668;2023-02-28T12:16:51;103243.72;;;7.46;63.25
71778;BME280;59609;52.430;4.668;2023-02-28T12:19:31;103245.59;;;7.77;61.17
71778;BME280;59609;52.430;4.668;2023-02-28T12:27:31;103237.34;;;7.77;61.97
71778;BME280;59609;52.430;4.668;2023-02-28T12:30:05;103235.50;;;8.07;65.33
71778;BME280;59609;52.430;4.668;2023-02-28T12:32:36;103226.16;;;8.55;62.72
71778;BME280;59609;52.430;4.668;2023-02-28T12:37:47;103226.31;;;8.96;63.31
71778;BME280;59609;52.430;4.668;2023-02-28T12:40:21;103222.06;;;8.91;61.15
71778;BME280;59609;52.430;4.668;2023-02-28T12:42:52;103214.41;;;8.82;61.06
71778;BME280;59609;52.430;4.668;2023-02-28T12:45:26;103221.59;;;8.98;58.06
71778;BME280;59609;52.430;4.668;2023-02-28T12:47:57;103215.59;;;8.77;58.73
71778;BME280;59609;52.430;4.668;2023-02-28T12:50:26;103207.56;;;8.60;60.70
71778;BME280;59609;52.430;4.668;2023-02-28T12:58:14;103209.50;;;8.58;56.53
71778;BME280;59609;52.430;4.668;2023-02-28T13:04:14;103195.97;;;8.69;54.93
71778;BME280;59609;52.430;4.668;2023-02-28T13:09:32;103197.00;;;10.18;53.56
71778;BME280;59609;52.430;4.668;2023-02-28T13:11:58;103196.59;;;10.24;51.98
71778;BME280;59609;52.430;4.668;2023-02-28T13:19:39;103187.59;;;9.81;51.33
71778;BME280;59609;52.430;4.668;2023-02-28T13:22:17;103201.50;;;9.39;52.30
71778;BME280;59609;52.430;4.668;2023-02-28T13:24:50;103193.97;;;9.28;54.13
71778;BME280;59609;52.430;4.668;2023-02-28T13:27:32;103198.56;;;9.27;53.55
71778;BME280;59609;52.430;4.668;2023-02-28T13:29:59;103196.69;;;9.42;54.07
71778;BME280;59609;52.430;4.668;2023-02-28T13:39:57;103185.06;;;9.51;53.41
71778;BME280;59609;52.430;4.668;2023-02-28T13:47:32;103181.03;;;9.83;52.09
71778;BME280;59609;52.430;4.668;2023-02-28T13:58:51;103172.03;;;9.67;52.79
71778;BME280;59609;52.430;4.668;2023-02-28T14:01:42;103166.88;;;9.22;52.78
71778;BME280;59609;52.430;4.668;2023-02-28T14:04:51;103173.69;;;9.43;52.64
71778;BME280;59609;52.430;4.668;2023-02-28T14:07:24;103176.25;;;9.46;52.55
71778;BME280;59609;52.430;4.668;2023-02-28T14:10:01;103170.59;;;9.62;51.94
71778;BME280;59609;52.430;4.668;2023-02-28T14:12:56;103165.88;;;9.91;52.09
71778;BME280;59609;52.430;4.668;2023-02-28T14:18:06;103167.00;;;9.47;52.27
71778;BME280;59609;52.430;4.668;2023-02-28T14:20:39;103166.88;;;9.22;51.55
71778;BME280;59609;52.430;4.668;2023-02-28T14:31:49;103159.38;;;9.65;52.30
71778;BME280;59609;52.430;4.668;2023-02-28T14:37:15;103168.28;;;9.42;50.16
71778;BME280;59609;52.430;4.668;2023-02-28T14:39:44;103147.16;;;10.08;50.08
71778;BME280;59609;52.430;4.668;2023-02-28T14:42:30;103155.72;;;9.38;51.30
71778;BME280;59609;52.430;4.668;2023-02-28T14:44:58;103152.97;;;9.64;51.29
71778;BME280;59609;52.430;4.668;2023-02-28T14:47:27;103154.28;;;9.59;51.36
71778;BME280;59609;52.430;4.668;2023-02-28T14:49:53;103152.91;;;9.25;51.57
71778;BME280;59609;52.430;4.668;2023-02-28T14:54:52;103147.72;;;9.20;50.43
71778;BME280;59609;52.430;4.668;2023-02-28T14:57:32;103147.84;;;9.46;50.96
71778;BME280;59609;52.430;4.668;2023-02-28T15:00:09;103151.06;;;9.11;52.60
71778;BME280;59609;52.430;4.668;2023-02-28T15:02:39;103154.66;;;9.67;52.38
71778;BME280;59609;52.430;4.668;2023-02-28T15:07:42;103145.59;;;9.38;53.64
71778;BME280;59609;52.430;4.668;2023-02-28T15:10:23;103148.25;;;8.99;52.81